METAR Data
IDs: Format: Raw Decoded Include TAF

Data at: 1814 UTC 21 Sep 2018

KCDS 211804Z AUTO 05020G32KT 7SM -RA SCT013 BKN050 OVC065 21/18 A3007 RMK AO2 PK WND 05032/1759 P0001 T02060183
KCDS 211753Z AUTO 05022G31KT 6SM -RA BR FEW011 BKN014 OVC044 21/19 A3007 RMK AO2 PK WND 05031/1753 SLP161 P0007 60034 T02060189 10217 20194 53001
KCDS 211741Z AUTO 04017G28KT 4SM RA BR BKN013 BKN022 OVC060 21/19 A3006 RMK AO2 PK WND 03029/1718 P0006 T02060189
KCDS 211653Z AUTO 02013KT 5SM RA BR BKN007 OVC012 20/19 A3006 RMK AO2 SLP160 P0003 T02000189
KCDS 211648Z AUTO 02013KT 5SM RA BR BKN007 OVC012 19/19 A3006 RMK AO2 P0003
KCDS 211609Z AUTO 02014KT 8SM -RA FEW006 OVC013 19/18 A3006 RMK AO2 P0001 T01940183
KCDS 211601Z AUTO 02015KT 7SM -RA SCT009 OVC015 19/19 A3006 RMK AO2 P0001 T01940189
KCDS 211553Z AUTO 02014KT 7SM -RA BKN009 OVC015 19/19 A3006 RMK AO2 CIG 005V013 SLP159 P0006 T01940189
KCDS 211540Z AUTO 02011KT 5SM -RA BR BKN009 OVC015 20/19 A3006 RMK AO2 CIG 006V012 P0006 T02000189
KCDS 211520Z AUTO 03011KT 4SM RA BR BKN013 BKN055 OVC070 19/19 A3006 RMK AO2 P0004 T01940189
KCDS 211510Z AUTO 03011KT 4SM RA BR FEW015 BKN060 OVC075 19/19 A3005 RMK AO2 P0002 T01940189
KCDS 211453Z AUTO 04012G19KT 2 1/2SM RA BR BKN065 OVC075 19/18 A3004 RMK AO2 SLP152 P0010 60018 T01940183 53026
KCDS 211428Z AUTO 03011G19KT 4SM -RA BR FEW008 BKN041 OVC070 19/18 A3003 RMK AO2 P0004 T01940183
KCDS 211410Z AUTO 03009G18KT 4SM -RA BR SCT009 BKN021 OVC037 19/19 A3002 RMK AO2 P0002 T01940189
KCDS 211358Z AUTO 03013G22KT 2SM RA BR SCT007 BKN018 OVC026 20/19 A3002 RMK AO2 P0001 T02000189
KCDS 211353Z AUTO 04013G24KT 1 1/2SM +RA BR BKN007 BKN016 OVC043 20/19 A3002 RMK AO2 SLP142 P0008 T02000189
KCDS 211349Z AUTO 04016G24KT 1 3/4SM +RA BR BKN007 BKN016 OVC065 21/21 A3001 RMK AO2 P0007
KCDS 211341Z AUTO 04010KT 3SM -RA BR BKN007 BKN015 OVC060 22/21 A3000 RMK AO2 P0004 T02170211
KCDS 211327Z AUTO 03013KT 5SM -RA BR SCT005 BKN022 OVC060 22/21 A2999 RMK AO2 P0003 T02170211
KCDS 211320Z AUTO 04011KT 2 1/2SM -RA BR BKN005 BKN018 OVC060 22/21 A2999 RMK AO2 CIG 003V008 P0002 T02170211
KCDS 211253Z AUTO 03008KT 10SM -RA BKN005 BKN029 OVC085 22/21 A2998 RMK AO2 SLP126 P0000 T02170211
KCDS 211246Z AUTO 03009KT 10SM -RA SCT005 BKN029 OVC090 22/21 A2998 RMK AO2 CIG 018V038 P0000 T02170211
KCDS 211236Z AUTO 03008KT 10SM -RA SCT010 BKN036 OVC110 22/21 A2997 RMK AO2 P0000 T02170211
KCDS 211228Z AUTO 04008KT 10SM -RA SCT006 BKN015 OVC090 22/21 A2997 RMK AO2 P0000 T02170211
KCDS 211218Z AUTO 03007KT 10SM -RA FEW006 BKN013 OVC030 22/21 A2997 RMK AO2 P0000 T02170211
KCDS 211208Z AUTO 04006KT 10SM -RA SCT004 BKN015 OVC030 22/21 A2997 RMK AO2 P0000 T02170211
KCDS 211200Z AUTO 04005KT 10SM -RA FEW009 SCT016 OVC030 22/21 A2996 RMK AO2 P0000 T02170211
KCDS 211153Z AUTO 04006KT 10SM -RA FEW009 BKN017 OVC030 22/21 A2996 RMK AO2 SLP118 P0006 60056 70056 T02170211 10228 20206 53011
KCDS 211146Z AUTO 04006KT 10SM -RA SCT009 SCT017 OVC032 22/21 A2996 RMK AO2 P0005 T02170211
KCDS 211110Z AUTO 36005KT 6SM RA BR FEW012 BKN044 OVC080 21/21 A2995 RMK AO2 P0003 T02110206
KCDS 211049Z AUTO 36004KT 7SM RA FEW007 BKN013 OVC019 21/21 A2995 RMK AO2 SLP114 P0014 T02110206
KCDS 211048Z AUTO 35004KT 6SM RA BR FEW007 BKN013 OVC019 21/21 A2995 RMK AO2 P0014
KCDS 211020Z AUTO 36005KT 6SM RA BR BKN015 BKN055 OVC095 21/20 A2994 RMK AO2 P0006 T02110200
KCDS 210953Z AUTO 32005KT 6SM RA BR SCT008 OVC013 21/20 A2994 RMK AO2 SLP109 P0015 T02110200
KCDS 210935Z AUTO 30006KT 4SM RA BR BKN008 OVC013 22/21 A2994 RMK AO2 CIG 005V010 P0012 T02170211
KCDS 210918Z AUTO 00000KT 3SM RA BR BKN011 OVC090 22/21 A2993 RMK AO2 P0008 T02220211
KCDS 210853Z AUTO 00000KT 3SM RA BR SCT014 OVC100 22/21 A2993 RMK AO2 SLP106 P0017 60021 T02170211 50004
KCDS 210845Z AUTO 00000KT 3SM RA BR FEW009 SCT015 OVC090 22/21 A2993 RMK AO2 P0014 T02170211
KCDS 210843Z AUTO 00000KT 2 1/2SM RA BR FEW009 BKN015 OVC095 22/21 A2993 RMK AO2 P0014 T02170211
KCDS 210835Z AUTO 00000KT 3SM RA BR SCT009 BKN015 OVC090 22/21 A2994 RMK AO2 P0011 T02170211
KCDS 210831Z AUTO 00000KT 3SM RA BR BKN011 OVC015 22/21 A2994 RMK AO2 P0010 T02170211
KCDS 210817Z AUTO 24004KT 5SM RA BR SCT010 BKN015 OVC110 22/21 A2994 RMK AO2 P0005 T02220211
KCDS 210753Z AUTO 20006KT 6SM RA BR BKN090 OVC110 22/21 A2993 RMK AO2 SLP107 P0004 T02220211
KCDS 210653Z AUTO 19012KT 10SM -RA FEW095 22/21 A2991 RMK AO2 RAB39 SLP101 P0000 T02220206
KCDS 210553Z AUTO 17012KT 10SM OVC100 23/20 A2991 RMK AO2 SLP101 T02280200 10311 20228 403330206 51000
KCDS 210453Z AUTO 16013G20KT 10SM CLR 23/20 A2991 RMK AO2 SLP101 T02280200
KCDS 210353Z AUTO 15015KT 10SM FEW120 23/20 A2992 RMK AO2 PK WND 15028/0257 SLP103 T02330200
KCDS 210253Z AUTO 15021G28KT 10SM FEW095 24/20 A2991 RMK AO2 PK WND 15028/0251 SLP103 T02440200 53028
KCDS 210153Z AUTO 13018G23KT 10SM SCT070 BKN085 27/18 A2988 RMK AO2 PRESRR SLP092 T02670183
KCDS 210053Z AUTO 16009KT 10SM BKN065 29/17 A2985 RMK AO2 LTG DSNT E SLP079 T02940172
KCDS 202353Z AUTO 17013G20KT 10SM BKN070 31/17 A2982 RMK AO2 PK WND 19026/2254 SLP072 T03110167 10333 20311 55003
KCDS 202253Z AUTO 19017G24KT 10SM CLR 32/16 A2981 RMK AO2 PK WND 16026/2219 SLP064 T03220161
KCDS 202153Z AUTO 19014KT 10SM FEW070 33/16 A2981 RMK AO2 PK WND 16026/2055 SLP066 T03280161
KCDS 202053Z AUTO 18019G26KT 10SM CLR 33/17 A2983 RMK AO2 PK WND 18027/1957 SLP074 T03280167 58028
KCDS 201953Z AUTO 20016G23KT 10SM SCT060 33/18 A2987 RMK AO2 PK WND 19026/1942 SLP084 T03280178
KCDS 201853Z AUTO 20021G28KT 10SM SCT055 32/18 A2990 RMK AO2 PK WND 18028/1850 SLP095 T03220178
KCDS 201753Z AUTO 18018G24KT 10SM CLR 31/19 A2992 RMK AO2 PK WND 18026/1706 SLP103 T03110189 10317 20211 58010
KCDS 201653Z AUTO 19016G23KT 10SM CLR 31/19 A2994 RMK AO2 SLP109 T03060189
KCDS 201553Z AUTO 18013G18KT 10SM CLR 28/20 A2995 RMK AO2 SLP114 T02830200
KCDS 201453Z AUTO 20013KT 10SM CLR 26/19 A2995 RMK AO2 SLP115 T02560194 51009
KCDS 201353Z AUTO 18009KT 10SM CLR 23/19 A2995 RMK AO2 SLP115 T02330189
KCDS 201253Z AUTO 18009KT 10SM CLR 21/18 A2993 RMK AO2 SLP110 T02110183
KCDS 201153Z AUTO 18011KT 10SM CLR 21/18 A2992 RMK AO2 SLP106 T02110183 10233 20206 53006
KCDS 201053Z AUTO 18009KT 10SM CLR 21/18 A2991 RMK AO2 SLP100 T02110178
KCDS 200953Z AUTO 17008KT 10SM CLR 21/18 A2990 RMK AO2 SLP097 T02110178
KCDS 200853Z AUTO 17007KT 10SM CLR 21/18 A2991 RMK AO2 SLP099 T02060178 56007
KCDS 200753Z AUTO 15007KT 10SM CLR 22/18 A2991 RMK AO2 SLP098 T02220178
KCDS 200653Z AUTO 16006KT 10SM CLR 22/18 A2992 RMK AO2 SLP104 T02220178